createdAt,value
2022-12-24T00:00:38.481Z,7.27
2022-12-24T00:03:05.293Z,3.80
2022-12-24T00:05:32.054Z,5.80
2022-12-24T00:07:58.662Z,5.93
2022-12-24T00:10:25.303Z,4.00
2022-12-24T00:12:51.945Z,3.93
2022-12-24T00:15:18.677Z,5.63
2022-12-24T00:17:45.320Z,6.63
2022-12-24T00:20:12.175Z,7.67
2022-12-24T00:22:38.774Z,6.27
2022-12-24T00:25:05.976Z,4.30
2022-12-24T00:27:32.612Z,8.13
2022-12-24T00:29:59.240Z,6.50
2022-12-24T00:32:25.861Z,5.33
2022-12-24T00:34:52.491Z,3.70
2022-12-24T00:37:19.802Z,6.10
2022-12-24T00:39:46.513Z,3.93
2022-12-24T00:42:13.169Z,6.20
2022-12-24T00:44:39.743Z,5.27
2022-12-24T00:47:11.796Z,4.37
2022-12-24T00:49:38.858Z,5.93
2022-12-24T00:52:05.762Z,3.13
2022-12-24T00:54:32.365Z,5.07
2022-12-24T00:57:01.535Z,7.10
2022-12-24T00:59:28.165Z,6.50
2022-12-24T01:01:54.864Z,5.73
2022-12-24T01:04:40.058Z,6.30
2022-12-24T01:07:06.858Z,8.03
2022-12-24T01:09:33.519Z,8.40
2022-12-24T01:12:00.121Z,6.77
2022-12-24T01:14:26.741Z,5.70
2022-12-24T01:16:53.443Z,5.93
2022-12-24T01:19:20.089Z,7.90
2022-12-24T01:21:46.797Z,5.43
2022-12-24T01:24:16.966Z,6.93
2022-12-24T01:26:43.691Z,4.27
2022-12-24T01:29:10.426Z,7.37
2022-12-24T01:31:37.223Z,4.60
2022-12-24T01:34:03.967Z,4.57
2022-12-24T01:36:30.664Z,4.67
2022-12-24T01:38:57.404Z,6.00
2022-12-24T01:41:43.331Z,4.57
2022-12-24T01:44:33.432Z,7.57
2022-12-24T01:47:13.949Z,3.23
2022-12-24T01:49:47.603Z,7.07
2022-12-24T01:52:24.467Z,5.57
2022-12-24T01:54:58.381Z,7.80
2022-12-24T01:57:33.106Z,8.43
2022-12-24T02:00:05.465Z,8.07
2022-12-24T02:02:33.602Z,7.77
2022-12-24T02:05:38.038Z,9.13
2022-12-24T02:08:06.035Z,13.60
2022-12-24T02:10:32.696Z,11.93
2022-12-24T02:13:02.088Z,8.83
2022-12-24T02:15:42.605Z,9.43
2022-12-24T02:18:24.240Z,7.90
2022-12-24T02:21:11.670Z,9.23
2022-12-24T02:24:02.237Z,13.27
2022-12-24T02:26:53.645Z,6.27
2022-12-24T02:29:44.969Z,8.40
2022-12-24T02:32:27.065Z,8.70
2022-12-24T02:34:53.601Z,8.73
2022-12-24T02:37:43.446Z,6.87
2022-12-24T02:40:29.528Z,11.53
2022-12-24T02:43:01.832Z,6.50
2022-12-24T02:45:33.435Z,7.87
2022-12-24T02:48:00.995Z,6.60
2022-12-24T02:50:28.025Z,6.07
2022-12-24T02:52:54.629Z,10.80
2022-12-24T02:55:52.973Z,8.70
2022-12-24T02:58:41.463Z,10.57
2022-12-24T03:01:22.247Z,9.33
2022-12-24T03:04:15.856Z,7.37
2022-12-24T03:07:06.731Z,7.17
2022-12-24T03:09:49.248Z,7.07
2022-12-24T03:12:21.168Z,7.00
2022-12-24T03:14:49.561Z,11.67
2022-12-24T03:17:18.873Z,7.13
2022-12-24T03:19:46.905Z,10.03
2022-12-24T03:22:14.471Z,7.80
2022-12-24T03:24:41.106Z,5.90
2022-12-24T03:27:09.459Z,4.57
2022-12-24T03:29:36.122Z,7.60
2022-12-24T03:32:04.149Z,7.93
2022-12-24T03:34:31.109Z,6.43
2022-12-24T03:36:57.795Z,8.33
2022-12-24T03:39:24.631Z,7.43
2022-12-24T03:41:51.289Z,5.27
2022-12-24T03:44:17.947Z,7.70
2022-12-24T03:46:44.553Z,7.20
2022-12-24T03:49:11.251Z,5.00
2022-12-24T03:51:37.858Z,4.77
2022-12-24T03:54:04.498Z,8.60
2022-12-24T03:56:31.098Z,9.90
2022-12-24T03:58:57.764Z,9.30
2022-12-24T04:01:24.484Z,3.73
2022-12-24T04:03:51.239Z,7.83
2022-12-24T04:06:18.170Z,3.90
2022-12-24T04:08:45.106Z,6.13
2022-12-24T04:11:14.483Z,5.17
2022-12-24T04:13:41.241Z,6.87
2022-12-24T04:16:10.867Z,6.07
2022-12-24T04:18:38.171Z,7.20
2022-12-24T04:21:06.175Z,6.07
2022-12-24T04:23:34.894Z,4.70
2022-12-24T04:26:03.456Z,9.47
2022-12-24T04:28:30.968Z,3.93
2022-12-24T04:31:02.680Z,10.00
2022-12-24T04:33:29.819Z,8.80
2022-12-24T04:36:00.948Z,6.40
2022-12-24T04:38:28.310Z,6.40
2022-12-24T04:41:03.327Z,7.47
2022-12-24T04:43:30.069Z,10.97
2022-12-24T04:45:57.284Z,8.27
2022-12-24T04:48:23.956Z,7.60
2022-12-24T04:50:50.578Z,8.87
2022-12-24T04:53:17.264Z,9.37
2022-12-24T04:55:47.826Z,6.57
2022-12-24T04:58:14.852Z,7.40
2022-12-24T05:00:41.738Z,8.30
2022-12-24T05:03:08.439Z,6.43
2022-12-24T05:05:35.184Z,5.47
2022-12-24T05:08:01.865Z,8.47
2022-12-24T05:10:28.659Z,6.47
2022-12-24T05:12:55.318Z,4.97
2022-12-24T05:15:22.033Z,7.97
2022-12-24T05:17:48.772Z,8.40
2022-12-24T05:20:16.014Z,8.13
2022-12-24T05:23:01.461Z,6.97
2022-12-24T05:25:52.479Z,6.47
2022-12-24T05:28:19.316Z,7.00
2022-12-24T05:30:45.982Z,5.97
2022-12-24T05:33:12.678Z,6.80
2022-12-24T05:35:39.304Z,7.27
2022-12-24T05:38:05.991Z,4.97
2022-12-24T05:40:32.792Z,5.33
2022-12-24T05:42:59.416Z,6.60
2022-12-24T05:45:25.984Z,4.50
2022-12-24T05:47:52.619Z,9.37
2022-12-24T05:50:19.233Z,9.13
2022-12-24T05:52:45.893Z,6.47
2022-12-24T05:55:12.475Z,8.20
2022-12-24T05:57:40.683Z,5.47
2022-12-24T06:00:08.064Z,7.60
2022-12-24T06:02:34.749Z,5.93
2022-12-24T06:05:01.556Z,10.83
2022-12-24T06:07:28.217Z,8.47
2022-12-24T06:09:54.812Z,13.10
2022-12-24T06:12:21.663Z,9.07
2022-12-24T06:14:48.282Z,4.47
2022-12-24T06:17:15.118Z,8.37
2022-12-24T06:19:41.726Z,7.73
2022-12-24T06:22:08.330Z,12.33
2022-12-24T06:24:35.044Z,6.67
2022-12-24T06:27:01.623Z,4.87
2022-12-24T06:29:28.251Z,7.40
2022-12-24T06:31:54.910Z,7.20
2022-12-24T06:34:21.678Z,10.47
2022-12-24T06:36:48.268Z,8.57
2022-12-24T06:39:14.885Z,7.80
2022-12-24T06:41:41.530Z,7.33
2022-12-24T06:44:09.104Z,8.80
2022-12-24T06:46:35.843Z,7.47
2022-12-24T06:49:02.568Z,19.63
2022-12-24T06:51:29.216Z,10.30
2022-12-24T06:53:55.925Z,9.77
2022-12-24T06:56:22.581Z,11.40
2022-12-24T06:58:49.473Z,11.37
2022-12-24T07:01:19.246Z,13.87
2022-12-24T07:03:46.463Z,9.87
2022-12-24T07:06:24.622Z,8.47
2022-12-24T07:08:51.278Z,13.37
2022-12-24T07:11:18.864Z,9.87
2022-12-24T07:13:47.125Z,8.23
2022-12-24T07:16:13.833Z,12.43
2022-12-24T07:18:40.654Z,11.27
2022-12-24T07:21:07.534Z,8.33
2022-12-24T07:23:35.005Z,7.60
2022-12-24T07:26:03.336Z,10.07
2022-12-24T07:28:30.459Z,12.87
2022-12-24T07:30:58.391Z,10.13
2022-12-24T07:33:26.006Z,11.43
2022-12-24T07:36:00.886Z,12.47
2022-12-24T07:38:27.862Z,11.20
2022-12-24T07:40:54.539Z,10.50
2022-12-24T07:43:21.199Z,10.30
2022-12-24T07:45:47.890Z,12.73
2022-12-24T07:48:14.725Z,11.57
2022-12-24T07:50:41.985Z,10.23
2022-12-24T07:53:08.603Z,12.40
2022-12-24T07:55:36.390Z,13.30
2022-12-24T07:58:03.127Z,14.20
2022-12-24T08:00:29.768Z,11.63
2022-12-24T08:02:56.821Z,9.43
2022-12-24T08:05:24.357Z,12.93
2022-12-24T08:07:51.085Z,10.20
2022-12-24T08:10:17.770Z,10.13
2022-12-24T08:12:45.591Z,14.90
2022-12-24T08:15:12.393Z,16.20
2022-12-24T08:17:39.174Z,10.17
2022-12-24T08:20:08.621Z,9.20
2022-12-24T08:22:35.343Z,18.97
2022-12-24T08:25:01.963Z,9.47
2022-12-24T08:27:28.607Z,12.37
2022-12-24T08:29:55.334Z,10.90
2022-12-24T08:32:22.030Z,13.47
2022-12-24T08:34:48.659Z,9.57
2022-12-24T08:37:15.282Z,10.37
2022-12-24T08:39:41.910Z,19.37
2022-12-24T08:42:08.650Z,14.10
2022-12-24T08:44:35.296Z,15.67
2022-12-24T08:47:01.912Z,13.73
2022-12-24T08:49:28.517Z,15.17
2022-12-24T08:51:55.200Z,13.80
2022-12-24T08:54:23.547Z,8.33
2022-12-24T08:56:50.211Z,18.57
2022-12-24T08:59:17.158Z,15.07
2022-12-24T09:01:43.927Z,23.83
2022-12-24T09:04:10.686Z,11.67
2022-12-24T09:06:37.369Z,12.70
2022-12-24T09:09:05.447Z,13.03
2022-12-24T09:11:34.032Z,12.83
2022-12-24T09:14:00.822Z,16.20
2022-12-24T09:16:27.813Z,13.57
2022-12-24T09:18:54.484Z,15.93
2022-12-24T09:21:21.124Z,16.33
2022-12-24T09:23:48.616Z,14.73
2022-12-24T09:26:20.296Z,16.90
2022-12-24T09:28:47.785Z,9.60
2022-12-24T09:31:15.009Z,17.20
2022-12-24T09:33:43.646Z,15.03
2022-12-24T09:36:10.493Z,10.33
2022-12-24T09:38:38.142Z,14.30
2022-12-24T09:41:23.210Z,14.73
2022-12-24T09:43:56.362Z,10.50
2022-12-24T09:46:37.480Z,16.57
2022-12-24T09:49:14.692Z,9.83
2022-12-24T09:51:47.339Z,12.77
2022-12-24T09:54:26.313Z,16.47
2022-12-24T09:56:57.271Z,13.33
2022-12-24T09:59:28.381Z,9.40
2022-12-24T10:01:55.452Z,15.90
2022-12-24T10:04:26.855Z,11.67
2022-12-24T10:07:22.541Z,14.63
2022-12-24T10:10:34.985Z,10.67
2022-12-24T10:13:06.675Z,11.33
2022-12-24T10:15:43.480Z,15.23
2022-12-24T10:18:49.082Z,10.87
2022-12-24T10:21:48.621Z,13.63
2022-12-24T10:24:22.422Z,11.90
2022-12-24T10:26:58.126Z,12.23
2022-12-24T10:29:30.911Z,17.93
2022-12-24T10:32:05.713Z,14.17
2022-12-24T10:34:40.328Z,10.73
2022-12-24T10:37:07.097Z,16.63
2022-12-24T10:39:33.740Z,11.43
2022-12-24T10:42:01.738Z,15.43
2022-12-24T10:44:31.937Z,16.00
2022-12-24T10:46:59.711Z,21.33
2022-12-24T10:49:36.224Z,13.10
2022-12-24T10:52:15.341Z,13.17
2022-12-24T10:55:03.799Z,9.60
2022-12-24T10:57:30.493Z,13.83
2022-12-24T10:59:57.732Z,13.13
2022-12-24T11:02:40.169Z,13.67
2022-12-24T11:05:28.911Z,12.60
2022-12-24T11:08:13.623Z,10.93
2022-12-24T11:10:53.814Z,16.60
2022-12-24T11:13:39.633Z,13.17
2022-12-24T11:16:29.776Z,10.67
2022-12-24T11:19:00.757Z,13.57
2022-12-24T11:21:39.216Z,7.03
2022-12-24T11:24:12.539Z,13.53
2022-12-24T11:26:43.930Z,14.30
2022-12-24T11:29:19.990Z,10.30
2022-12-24T11:31:47.908Z,14.43
2022-12-24T11:34:25.747Z,12.30
2022-12-24T11:36:54.627Z,14.60
2022-12-24T11:39:23.958Z,10.83
2022-12-24T11:41:51.394Z,10.27
2022-12-24T11:44:28.095Z,12.57
2022-12-24T11:46:59.080Z,10.13
2022-12-24T11:49:30.906Z,11.03
2022-12-24T11:52:09.834Z,7.03
2022-12-24T11:54:59.764Z,13.13
2022-12-24T11:57:32.388Z,12.83
2022-12-24T11:59:59.118Z,12.30
2022-12-24T12:02:36.591Z,11.83
2022-12-24T12:05:13.154Z,11.37
2022-12-24T12:07:40.011Z,24.03
2022-12-24T12:10:23.010Z,15.40
2022-12-24T12:13:19.092Z,17.00
2022-12-24T12:15:57.700Z,9.40
2022-12-24T12:18:39.965Z,14.57
2022-12-24T12:21:14.663Z,14.67
2022-12-24T12:23:58.731Z,13.77
2022-12-24T12:26:28.675Z,12.73
2022-12-24T12:28:59.821Z,10.57
2022-12-24T12:31:47.400Z,14.10
2022-12-24T12:34:23.576Z,17.33
2022-12-24T12:36:58.833Z,15.27
2022-12-24T12:39:25.513Z,17.70
2022-12-24T12:42:29.205Z,19.23
2022-12-24T12:45:31.896Z,11.33
2022-12-24T12:48:16.162Z,11.30
2022-12-24T12:50:54.319Z,14.10
2022-12-24T12:53:41.909Z,13.30
2022-12-24T12:56:31.084Z,11.37
2022-12-24T12:59:36.569Z,13.50
2022-12-24T13:02:25.120Z,14.70
2022-12-24T13:05:06.465Z,14.73
2022-12-24T13:08:07.219Z,11.20
2022-12-24T13:10:53.890Z,16.27
2022-12-24T13:13:45.062Z,15.03
2022-12-24T13:16:38.632Z,11.23
2022-12-24T13:19:38.480Z,16.57
2022-12-24T13:22:05.696Z,12.37
2022-12-24T13:24:33.658Z,12.30
2022-12-24T13:27:16.980Z,8.53
2022-12-24T13:29:59.089Z,13.00
2022-12-24T13:32:28.460Z,13.57
2022-12-24T13:34:59.398Z,12.07
2022-12-24T13:37:33.271Z,10.47
2022-12-24T13:40:15.984Z,9.23
2022-12-24T13:43:07.379Z,11.23
2022-12-24T13:45:34.106Z,10.27
2022-12-24T13:48:06.915Z,8.83
2022-12-24T13:50:43.220Z,11.57
2022-12-24T13:53:40.828Z,12.17
2022-12-24T13:56:25.077Z,9.67
2022-12-24T13:59:09.928Z,13.53
2022-12-24T14:01:41.745Z,11.57
2022-12-24T14:04:18.463Z,13.30
2022-12-24T14:06:51.415Z,13.60
2022-12-24T14:09:23.065Z,11.47
2022-12-24T14:11:58.829Z,9.63
2022-12-24T14:14:31.448Z,10.33
2022-12-24T14:17:05.887Z,10.40
2022-12-24T14:19:42.055Z,15.67
2022-12-24T14:22:34.032Z,16.80
2022-12-24T14:25:07.175Z,15.20
2022-12-24T14:27:42.979Z,10.03
2022-12-24T14:30:22.820Z,14.60
2022-12-24T14:32:50.556Z,13.80
2022-12-24T14:35:24.270Z,11.67
2022-12-24T14:38:00.374Z,14.60
2022-12-24T14:40:29.851Z,12.60
2022-12-24T14:43:24.695Z,12.10
2022-12-24T14:46:11.198Z,14.37
2022-12-24T14:48:47.221Z,8.27
2022-12-24T14:51:40.993Z,13.10
2022-12-24T14:54:32.265Z,10.70
2022-12-24T14:57:12.556Z,9.90
2022-12-24T14:59:54.549Z,16.70
2022-12-24T15:02:45.769Z,13.43
2022-12-24T15:05:17.092Z,9.13
2022-12-24T15:08:03.124Z,10.30
2022-12-24T15:10:41.836Z,9.57
2022-12-24T15:13:20.577Z,17.33
2022-12-24T15:15:52.561Z,16.43
2022-12-24T15:18:25.200Z,12.17
2022-12-24T15:20:57.281Z,14.70
2022-12-24T15:23:35.157Z,13.90
2022-12-24T15:26:28.815Z,10.03
2022-12-24T15:29:03.298Z,10.73
2022-12-24T15:31:31.230Z,11.90
2022-12-24T15:34:01.847Z,13.53
2022-12-24T15:36:35.122Z,11.37
2022-12-24T15:39:08.355Z,15.00
2022-12-24T15:42:02.417Z,10.83
2022-12-24T15:44:36.838Z,16.00
2022-12-24T15:47:07.466Z,12.50
2022-12-24T15:49:35.325Z,12.33
2022-12-24T15:52:14.509Z,11.53
2022-12-24T15:54:48.483Z,15.90
2022-12-24T15:57:31.892Z,11.83
2022-12-24T16:00:00.788Z,14.83
2022-12-24T16:02:35.971Z,15.77
2022-12-24T16:05:38.966Z,15.40
2022-12-24T16:08:14.348Z,12.50
2022-12-24T16:11:03.625Z,13.50
2022-12-24T16:13:32.667Z,11.97
2022-12-24T16:16:11.782Z,13.03
2022-12-24T16:18:58.431Z,17.10
2022-12-24T16:21:30.785Z,11.53
2022-12-24T16:24:20.147Z,13.77
2022-12-24T16:26:48.018Z,18.20
2022-12-24T16:29:15.798Z,18.30
2022-12-24T16:31:54.289Z,14.10
2022-12-24T16:34:27.046Z,14.03
2022-12-24T16:36:54.107Z,13.70
2022-12-24T16:39:30.435Z,16.03
2022-12-24T16:42:20.966Z,22.27
2022-12-24T16:44:47.864Z,11.83
2022-12-24T16:47:21.925Z,15.50
2022-12-24T16:49:48.568Z,11.30
2022-12-24T16:52:23.430Z,13.53
2022-12-24T16:54:50.585Z,16.90
2022-12-24T16:57:17.848Z,14.50
2022-12-24T16:59:45.954Z,17.33
2022-12-24T17:02:18.547Z,15.10
2022-12-24T17:04:46.098Z,10.47
2022-12-24T17:07:15.189Z,17.67
2022-12-24T17:09:42.672Z,13.37
2022-12-24T17:12:12.802Z,18.23
2022-12-24T17:14:40.308Z,16.07
2022-12-24T17:17:07.016Z,15.50
2022-12-24T17:19:33.716Z,16.70
2022-12-24T17:22:00.389Z,14.23
2022-12-24T17:24:27.052Z,17.83
2022-12-24T17:26:53.733Z,17.27
2022-12-24T17:29:20.369Z,13.20
2022-12-24T17:31:47.031Z,13.97
2022-12-24T17:34:13.650Z,18.40
2022-12-24T17:36:40.510Z,14.30
2022-12-24T17:39:07.248Z,18.60
2022-12-24T17:41:33.876Z,15.77
2022-12-24T17:44:00.587Z,14.30
2022-12-24T17:46:27.315Z,15.50
2022-12-24T17:48:55.635Z,15.63
2022-12-24T17:51:23.517Z,14.83
2022-12-24T17:53:50.416Z,14.87
2022-12-24T17:56:18.048Z,15.20
2022-12-24T17:58:46.159Z,11.80
2022-12-24T18:01:19.948Z,13.60
2022-12-24T18:03:48.567Z,13.07
2022-12-24T18:06:15.724Z,16.57
2022-12-24T18:08:44.153Z,14.37
2022-12-24T18:11:19.490Z,16.40
2022-12-24T18:13:46.875Z,12.43
2022-12-24T18:16:19.236Z,18.20
2022-12-24T18:18:47.086Z,16.20
2022-12-24T18:21:14.763Z,12.77
2022-12-24T18:23:43.464Z,14.63
2022-12-24T18:26:11.259Z,14.40
2022-12-24T18:28:38.243Z,14.00
2022-12-24T18:31:07.599Z,16.97
2022-12-24T18:33:35.614Z,18.43
2022-12-24T18:36:02.252Z,16.80
2022-12-24T18:38:28.996Z,13.93
2022-12-24T18:40:55.627Z,14.63
2022-12-24T18:43:22.306Z,16.87
2022-12-24T18:45:48.994Z,15.97
2022-12-24T18:48:15.749Z,12.67
2022-12-24T18:50:42.358Z,13.83
2022-12-24T18:53:09.027Z,17.27
2022-12-24T18:55:37.062Z,13.97
2022-12-24T18:58:04.111Z,18.10
2022-12-24T19:00:30.853Z,12.23
2022-12-24T19:02:57.555Z,18.83
2022-12-24T19:05:24.314Z,12.83
2022-12-24T19:07:50.982Z,17.13
2022-12-24T19:10:17.688Z,13.57
2022-12-24T19:12:44.395Z,16.77
2022-12-24T19:15:11.178Z,17.13
2022-12-24T19:17:37.814Z,12.03
2022-12-24T19:20:04.902Z,13.17
2022-12-24T19:22:31.553Z,11.30
2022-12-24T19:24:58.187Z,14.13
2022-12-24T19:27:24.769Z,19.60
2022-12-24T19:29:51.457Z,11.53
2022-12-24T19:32:18.383Z,13.80
2022-12-24T19:34:45.031Z,17.57
2022-12-24T19:37:11.724Z,15.63
2022-12-24T19:39:38.384Z,14.57
2022-12-24T19:42:05.847Z,18.03
2022-12-24T19:44:32.491Z,12.50
2022-12-24T19:46:59.170Z,13.47
2022-12-24T19:49:25.796Z,11.57
2022-12-24T19:51:54.624Z,11.27
2022-12-24T19:54:21.683Z,14.73
2022-12-24T19:56:48.334Z,11.97
2022-12-24T19:59:15.018Z,16.03
2022-12-24T20:01:41.780Z,15.03
2022-12-24T20:04:08.966Z,10.80
2022-12-24T20:06:35.724Z,13.97
2022-12-24T20:09:06.292Z,13.77
2022-12-24T20:11:33.884Z,14.23
2022-12-24T20:14:02.640Z,13.07
2022-12-24T20:16:30.143Z,12.17
2022-12-24T20:19:03.383Z,10.43
2022-12-24T20:21:30.793Z,11.67
2022-12-24T20:23:57.507Z,8.57
2022-12-24T20:26:27.817Z,15.27
2022-12-24T20:28:54.603Z,13.17
2022-12-24T20:31:26.541Z,14.27
2022-12-24T20:33:53.956Z,12.30
2022-12-24T20:36:22.589Z,12.87
2022-12-24T20:38:49.982Z,10.10
2022-12-24T20:41:19.613Z,17.90
2022-12-24T20:43:48.720Z,19.30
2022-12-24T20:46:16.862Z,11.83
2022-12-24T20:48:43.605Z,23.20
2022-12-24T20:51:20.958Z,16.37
2022-12-24T20:53:50.775Z,15.60
2022-12-24T20:56:18.221Z,19.80
2022-12-24T20:58:45.559Z,15.70
2022-12-24T21:01:31.839Z,15.47
2022-12-24T21:04:04.152Z,15.27
2022-12-24T21:06:31.638Z,13.53
2022-12-24T21:08:58.382Z,18.67
2022-12-24T21:11:48.011Z,15.13
2022-12-24T21:14:19.849Z,12.73
2022-12-24T21:16:46.790Z,15.83
2022-12-24T21:19:20.711Z,12.23
2022-12-24T21:21:47.866Z,13.33
2022-12-24T21:24:15.315Z,10.47
2022-12-24T21:26:41.953Z,10.40
2022-12-24T21:29:09.412Z,15.37
2022-12-24T21:31:37.463Z,17.23
2022-12-24T21:34:04.353Z,14.60
2022-12-24T21:36:31.033Z,14.27
2022-12-24T21:38:57.800Z,19.00
2022-12-24T21:41:25.770Z,12.53
2022-12-24T21:43:52.677Z,16.20
2022-12-24T21:46:23.130Z,14.00
2022-12-24T21:49:09.833Z,13.27
2022-12-24T21:51:36.836Z,12.23
2022-12-24T21:54:22.343Z,16.47
2022-12-24T21:57:08.415Z,12.80
2022-12-24T21:59:35.042Z,9.30
2022-12-24T22:02:01.856Z,17.00
2022-12-24T22:04:30.037Z,15.37
2022-12-24T22:07:15.155Z,20.30
2022-12-24T22:10:00.558Z,14.73
2022-12-24T22:12:31.094Z,14.77
2022-12-24T22:14:58.240Z,14.10
2022-12-24T22:17:25.965Z,11.37
2022-12-24T22:19:56.291Z,14.47
2022-12-24T22:22:23.484Z,11.67
2022-12-24T22:24:50.278Z,13.80
2022-12-24T22:27:16.924Z,13.47
2022-12-24T22:29:43.545Z,14.47
2022-12-24T22:32:10.189Z,11.90
2022-12-24T22:34:36.848Z,10.20
2022-12-24T22:37:03.645Z,9.93
2022-12-24T22:39:30.277Z,12.67
2022-12-24T22:41:57.956Z,14.90
2022-12-24T22:44:24.963Z,10.67
2022-12-24T22:46:51.612Z,14.37
2022-12-24T22:49:18.270Z,13.27
2022-12-24T22:51:44.896Z,8.93
2022-12-24T22:54:11.825Z,10.60
2022-12-24T22:56:41.251Z,10.13
2022-12-24T22:59:09.350Z,12.60
2022-12-24T23:01:38.779Z,9.23
2022-12-24T23:04:07.304Z,12.17
2022-12-24T23:06:34.502Z,9.37
2022-12-24T23:09:01.613Z,9.57
2022-12-24T23:11:28.334Z,12.17
2022-12-24T23:14:13.628Z,9.90
2022-12-24T23:16:40.248Z,11.37
2022-12-24T23:19:07.114Z,7.53
2022-12-24T23:21:34.473Z,12.23
2022-12-24T23:24:01.853Z,10.47
2022-12-24T23:26:29.464Z,9.67
2022-12-24T23:28:57.055Z,5.97
2022-12-24T23:31:24.308Z,7.53
2022-12-24T23:33:51.278Z,7.20
2022-12-24T23:36:18.421Z,7.80
2022-12-24T23:38:45.037Z,9.20
2022-12-24T23:41:12.250Z,6.27
2022-12-24T23:43:39.187Z,8.00
2022-12-24T23:46:06.112Z,10.47
2022-12-24T23:48:32.777Z,9.13
2022-12-24T23:51:06.837Z,6.93
2022-12-24T23:53:33.689Z,11.03
2022-12-24T23:56:00.549Z,7.43
2022-12-24T23:58:27.456Z,10.07
